Terminal Aerodrome Forecast
Issued by NWS Cleveland, OH

Home | Current Version | Previous Version | Text Only | Print | Product List | Glossary Off
Versions: 1 2 3 4 5 6 7 8 9 10 11 12 13 14 15 16 17 18 19 20 21

000
FTUS41 KCLE 191400 AAB
TAFERI
TAF AMD
KERI 191457Z 1915/2012 13008KT 6SM -SHRA BR SCT015 OVC035
      TEMPO 1916/1918 4SM -SHRA OVC015
     FM191800 16012G20KT P6SM -SHRA VCTS BKN035CB OVC050
     FM200000 16008KT P6SM OVC050
     FM200800 19006KT P6SM BKN035=

USA.gov is the U.S. government's official web portal to all federal, state and local government web resources and services.